createdAt,value
2023-04-22T00:00:09.137Z,100548.41
2023-04-22T00:02:38.799Z,100551.91
2023-04-22T00:05:10.644Z,100540.50
2023-04-22T00:07:37.919Z,100548.94
2023-04-22T00:10:05.710Z,100546.47
2023-04-22T00:12:32.636Z,100545.22
2023-04-22T00:14:59.647Z,100542.69
2023-04-22T00:17:26.648Z,100544.81
2023-04-22T00:19:54.577Z,100546.38
2023-04-22T00:22:21.560Z,100550.91
2023-04-22T00:24:48.763Z,100539.91
2023-04-22T00:27:15.673Z,100537.75
2023-04-22T00:29:42.559Z,100533.75
2023-04-22T00:32:09.537Z,100537.66
2023-04-22T00:34:36.456Z,100524.41
2023-04-22T00:37:03.525Z,100520.56
2023-04-22T00:39:30.499Z,100521.66
2023-04-22T00:41:57.699Z,100524.66
2023-04-22T00:44:25.522Z,100514.50
2023-04-22T00:46:52.923Z,100529.38
2023-04-22T00:49:20.650Z,100522.03
2023-04-22T00:51:47.565Z,100525.94
2023-04-22T00:54:14.583Z,100525.47
2023-04-22T00:56:41.780Z,100534.38
2023-04-22T00:59:10.833Z,100525.28
2023-04-22T01:01:38.117Z,100516.28
2023-04-22T01:04:05.402Z,100521.03
2023-04-22T01:06:33.204Z,100522.84
2023-04-22T01:09:00.521Z,100522.75
2023-04-22T01:11:27.545Z,100513.13
2023-04-22T01:13:54.550Z,100505.84
2023-04-22T01:16:22.891Z,100507.03
2023-04-22T01:18:49.879Z,100512.78
2023-04-22T01:21:17.099Z,100509.47
2023-04-22T01:23:44.262Z,100512.50
2023-04-22T01:26:11.830Z,100512.78
2023-04-22T01:28:39.389Z,100512.31
2023-04-22T01:31:06.369Z,100497.66
2023-04-22T01:33:34.310Z,100499.88
2023-04-22T01:36:01.401Z,100508.59
2023-04-22T01:38:28.959Z,100498.88
2023-04-22T01:40:56.129Z,100502.16
2023-04-22T01:43:23.702Z,100502.41
2023-04-22T01:45:50.703Z,100504.84
2023-04-22T01:48:17.797Z,100499.50
2023-04-22T01:50:45.672Z,100501.97
2023-04-22T01:53:13.216Z,100493.88
2023-04-22T01:55:40.316Z,100493.31
2023-04-22T01:58:07.346Z,100501.41
2023-04-22T02:00:34.495Z,100496.41
2023-04-22T02:03:01.719Z,100493.53
2023-04-22T02:05:28.887Z,100494.06
2023-04-22T02:07:55.808Z,100492.31
2023-04-22T02:10:22.786Z,100494.06
2023-04-22T02:12:49.733Z,100495.69
2023-04-22T02:15:16.723Z,100489.78
2023-04-22T02:17:44.255Z,100497.78
2023-04-22T02:20:12.116Z,100497.75
2023-04-22T02:22:41.520Z,100490.94
2023-04-22T02:25:10.928Z,100500.84
2023-04-22T02:27:39.336Z,100490.16
2023-04-22T02:30:07.644Z,100478.69
2023-04-22T02:32:36.885Z,100480.72
2023-04-22T02:35:05.284Z,100478.34
2023-04-22T02:37:32.513Z,100473.25
2023-04-22T02:39:59.461Z,100474.25
2023-04-22T02:42:26.417Z,100488.50
2023-04-22T02:44:53.523Z,100471.53
2023-04-22T02:47:21.756Z,100468.34
2023-04-22T02:49:48.818Z,100467.97
2023-04-22T02:52:15.745Z,100471.16
2023-04-22T02:54:42.806Z,100470.91
2023-04-22T02:57:09.816Z,100471.19
2023-04-22T02:59:37.672Z,100479.25
2023-04-22T03:02:06.925Z,100469.16
2023-04-22T03:04:34.256Z,100461.81
2023-04-22T03:07:01.377Z,100463.63
2023-04-22T03:09:28.431Z,100474.16
2023-04-22T03:11:56.007Z,100465.44
2023-04-22T03:14:23.067Z,100457.53
2023-04-22T03:16:50.308Z,100451.84
2023-04-22T03:19:17.263Z,100455.47
2023-04-22T03:21:44.227Z,100456.16
2023-04-22T03:24:11.224Z,100444.75
2023-04-22T03:26:38.263Z,100441.94
2023-04-22T03:29:05.425Z,100437.41
2023-04-22T03:31:32.395Z,100428.47
2023-04-22T03:33:59.678Z,100431.06
2023-04-22T03:36:27.518Z,100421.19
2023-04-22T03:38:54.526Z,100418.03
2023-04-22T03:41:21.517Z,100409.75
2023-04-22T03:43:48.548Z,100417.94
2023-04-22T03:46:16.983Z,100416.13
2023-04-22T03:48:44.000Z,100411.31
2023-04-22T03:51:11.032Z,100399.31
2023-04-22T03:53:38.188Z,100406.88
2023-04-22T03:56:05.656Z,100398.03
2023-04-22T03:58:33.135Z,100410.06
2023-04-22T04:01:00.182Z,100402.31
2023-04-22T04:03:30.181Z,100408.72
2023-04-22T04:05:58.253Z,100405.88
2023-04-22T04:08:25.715Z,100409.13
2023-04-22T04:10:52.743Z,100405.44
2023-04-22T04:13:19.671Z,100408.69
2023-04-22T04:15:47.288Z,100399.09
2023-04-22T04:18:15.000Z,100395.53
2023-04-22T04:20:42.019Z,100382.25
2023-04-22T04:23:10.039Z,100379.81
2023-04-22T04:25:38.929Z,100375.84
2023-04-22T04:28:12.125Z,100380.38
2023-04-22T04:30:41.580Z,100379.34
2023-04-22T04:33:08.809Z,100372.72
2023-04-22T04:35:39.617Z,100369.63
2023-04-22T04:38:06.701Z,100380.22
2023-04-22T04:40:35.040Z,100374.16
2023-04-22T04:43:04.318Z,100387.31
2023-04-22T04:45:31.356Z,100390.78
2023-04-22T04:47:58.481Z,100390.09
2023-04-22T04:50:27.850Z,100391.59
2023-04-22T04:52:55.290Z,100390.78
2023-04-22T04:55:22.317Z,100385.28
2023-04-22T04:57:49.278Z,100380.13
2023-04-22T05:00:16.513Z,100387.34
2023-04-22T05:02:43.753Z,100383.91
2023-04-22T05:05:12.032Z,100383.00
2023-04-22T05:07:41.854Z,100373.41
2023-04-22T05:10:10.745Z,100380.31
2023-04-22T05:12:37.682Z,100385.19
2023-04-22T05:15:05.535Z,100392.63
2023-04-22T05:17:32.508Z,100403.97
2023-04-22T05:19:59.476Z,100408.03
2023-04-22T05:22:26.482Z,100402.72
2023-04-22T05:24:53.415Z,100395.56
2023-04-22T05:27:20.603Z,100396.06
2023-04-22T05:29:47.611Z,100402.13
2023-04-22T05:32:14.619Z,100394.75
2023-04-22T05:34:43.826Z,100395.81
2023-04-22T05:37:11.038Z,100394.19
2023-04-22T05:39:38.125Z,100388.63
2023-04-22T05:42:05.434Z,100385.50
2023-04-22T05:44:32.399Z,100386.63
2023-04-22T05:46:59.416Z,100367.03
2023-04-22T05:49:27.030Z,100371.28
2023-04-22T05:51:53.935Z,100386.06
2023-04-22T05:54:20.873Z,100396.22
2023-04-22T05:56:47.808Z,100389.25
2023-04-22T05:59:14.833Z,100396.28
2023-04-22T06:01:42.393Z,100399.75
2023-04-22T06:04:12.219Z,100402.53
2023-04-22T06:06:39.812Z,100383.66
2023-04-22T06:09:07.540Z,100386.78
2023-04-22T06:11:34.535Z,100387.69
2023-04-22T06:14:01.541Z,100388.13
2023-04-22T06:16:28.621Z,100378.47
2023-04-22T06:18:55.562Z,100360.66
2023-04-22T06:21:25.499Z,100360.72
2023-04-22T06:23:52.441Z,100367.84
2023-04-22T06:26:19.626Z,100374.72
2023-04-22T06:28:46.558Z,100364.59
2023-04-22T06:31:13.510Z,100362.41
2023-04-22T06:33:40.463Z,100366.50
2023-04-22T06:36:07.773Z,100369.41
2023-04-22T06:38:34.741Z,100379.97
2023-04-22T06:41:01.810Z,100382.63
2023-04-22T06:43:28.716Z,100387.22
2023-04-22T06:45:55.853Z,100391.72
2023-04-22T06:48:22.857Z,100370.56
2023-04-22T06:50:49.791Z,100367.31
2023-04-22T06:53:16.809Z,100377.88
2023-04-22T06:55:43.821Z,100367.38
2023-04-22T06:58:10.731Z,100356.78
2023-04-22T07:00:37.652Z,100350.28
2023-04-22T07:03:04.632Z,100359.25
2023-04-22T07:05:32.160Z,100358.25
2023-04-22T07:07:59.061Z,100353.56
2023-04-22T07:10:26.151Z,100346.44
2023-04-22T07:12:53.199Z,100346.44
2023-04-22T07:15:20.296Z,100328.72
2023-04-22T07:17:47.409Z,100324.84
2023-04-22T07:20:14.353Z,100313.25
2023-04-22T07:22:41.276Z,100336.81
2023-04-22T07:25:08.698Z,100318.47
2023-04-22T07:27:38.955Z,100319.25
2023-04-22T07:30:11.696Z,100325.19
2023-04-22T07:32:38.692Z,100336.97
2023-04-22T07:35:06.422Z,100323.63
2023-04-22T07:37:33.356Z,100315.44
2023-04-22T07:40:00.253Z,100328.88
2023-04-22T07:42:27.294Z,100328.09
2023-04-22T07:44:54.264Z,100326.59
2023-04-22T07:47:21.410Z,100332.63
2023-04-22T07:49:48.483Z,100328.97
2023-04-22T07:52:15.406Z,100326.50
2023-04-22T07:54:42.490Z,100334.53
2023-04-22T07:57:09.390Z,100339.66
2023-04-22T07:59:36.301Z,100325.66
2023-04-22T08:02:03.305Z,100323.88
2023-04-22T08:04:30.415Z,100340.47
2023-04-22T08:06:57.518Z,100351.19
2023-04-22T08:09:24.585Z,100361.41
2023-04-22T08:11:53.342Z,100378.31
2023-04-22T08:14:20.258Z,100375.03
2023-04-22T08:16:47.152Z,100380.25
2023-04-22T08:19:14.080Z,100381.03
2023-04-22T08:21:41.000Z,100375.78
2023-04-22T08:24:08.017Z,100386.78
2023-04-22T08:26:36.336Z,100388.88
2023-04-22T08:29:04.540Z,100403.38
2023-04-22T08:31:31.758Z,100397.19
2023-04-22T08:33:58.710Z,100409.72
2023-04-22T08:36:27.692Z,100404.34
2023-04-22T08:38:54.916Z,100410.00
2023-04-22T08:41:24.552Z,100408.19
2023-04-22T08:43:53.855Z,100396.00
2023-04-22T08:46:21.915Z,100397.63
2023-04-22T08:48:50.542Z,100391.00
2023-04-22T08:51:18.430Z,100395.22
2023-04-22T08:53:45.732Z,100386.75
2023-04-22T08:56:16.439Z,100373.22
2023-04-22T08:58:44.025Z,100365.03
2023-04-22T09:01:11.526Z,100358.28
2023-04-22T09:03:40.972Z,100362.97
2023-04-22T09:06:10.764Z,100365.50
2023-04-22T09:08:38.692Z,100358.44
2023-04-22T09:11:05.703Z,100354.72
2023-04-22T09:13:34.631Z,100375.97
2023-04-22T09:16:01.825Z,100380.00
2023-04-22T09:18:28.841Z,100397.56
2023-04-22T09:20:57.285Z,100420.78
2023-04-22T09:23:24.947Z,100420.22
2023-04-22T09:25:51.981Z,100416.34
2023-04-22T09:28:19.751Z,100387.13
2023-04-22T09:30:47.494Z,100349.63
2023-04-22T09:33:15.688Z,100371.75
2023-04-22T09:35:44.045Z,100389.91
2023-04-22T09:38:12.411Z,100386.44
2023-04-22T09:40:44.545Z,100364.75
2023-04-22T09:43:11.738Z,100328.31
2023-04-22T09:45:42.051Z,100340.13
2023-04-22T09:48:15.454Z,100345.75
2023-04-22T09:50:51.898Z,100342.09
2023-04-22T09:53:21.594Z,100347.25
2023-04-22T09:55:54.417Z,100334.53
2023-04-22T09:58:23.826Z,100345.16
2023-04-22T10:00:54.986Z,100352.63
2023-04-22T10:03:22.064Z,100354.44
2023-04-22T10:05:49.188Z,100378.88
2023-04-22T10:08:17.601Z,100397.81
2023-04-22T10:10:45.884Z,100391.09
2023-04-22T10:13:12.926Z,100424.16
2023-04-22T10:15:53.304Z,100417.25
2023-04-22T10:18:26.985Z,100384.22
2023-04-22T10:20:56.416Z,100358.59
2023-04-22T10:23:25.167Z,100356.25
2023-04-22T10:25:56.596Z,100375.59
2023-04-22T10:28:28.593Z,100387.25
2023-04-22T10:30:55.654Z,100398.41
2023-04-22T10:33:27.713Z,100413.50
2023-04-22T10:36:17.985Z,100388.97
2023-04-22T10:38:51.042Z,100391.34
2023-04-22T10:41:24.218Z,100391.81
2023-04-22T10:44:00.402Z,100394.59
2023-04-22T10:46:34.774Z,100384.28
2023-04-22T10:49:20.588Z,100381.53
2023-04-22T10:51:52.432Z,100381.22
2023-04-22T10:54:31.577Z,100393.56
2023-04-22T10:57:15.459Z,100375.59
2023-04-22T10:59:52.058Z,100363.69
2023-04-22T11:02:20.921Z,100377.88
2023-04-22T11:04:48.818Z,100379.00
2023-04-22T11:07:30.160Z,100382.53
2023-04-22T11:10:07.425Z,100381.78
2023-04-22T11:12:38.408Z,100392.56
2023-04-22T11:15:15.819Z,100408.34
2023-04-22T11:17:46.270Z,100387.84
2023-04-22T11:20:17.987Z,100383.19
2023-04-22T11:22:52.560Z,100386.97
2023-04-22T11:25:20.531Z,100373.81
2023-04-22T11:27:48.374Z,100372.59
2023-04-22T11:30:27.085Z,100375.91
2023-04-22T11:32:59.995Z,100369.75
2023-04-22T11:35:32.193Z,100375.44
2023-04-22T11:38:08.746Z,100375.38
2023-04-22T11:40:45.120Z,100384.16
2023-04-22T11:43:13.669Z,100370.22
2023-04-22T11:45:41.250Z,100374.63
2023-04-22T11:48:11.903Z,100376.25
2023-04-22T11:50:42.415Z,100376.25
2023-04-22T11:53:16.417Z,100375.66
2023-04-22T11:55:45.696Z,100388.66
2023-04-22T11:58:16.714Z,100381.69
2023-04-22T12:00:50.351Z,100396.03
2023-04-22T12:03:25.046Z,100406.25
2023-04-22T12:05:54.317Z,100397.88
2023-04-22T12:08:30.215Z,100404.72
2023-04-22T12:11:01.273Z,100400.09
2023-04-22T12:13:41.584Z,100407.06
2023-04-22T12:16:13.429Z,100403.81
2023-04-22T12:18:48.108Z,100404.88
2023-04-22T12:21:18.766Z,100414.91
2023-04-22T12:23:47.713Z,100411.47
2023-04-22T12:26:16.455Z,100411.91
2023-04-22T12:28:45.231Z,100399.53
2023-04-22T12:31:14.153Z,100395.16
2023-04-22T12:33:41.939Z,100392.44
2023-04-22T12:36:09.514Z,100392.53
2023-04-22T12:38:37.155Z,100394.53
2023-04-22T12:41:06.403Z,100408.16
2023-04-22T12:43:36.739Z,100410.75
2023-04-22T12:46:08.169Z,100404.59
2023-04-22T12:48:38.915Z,100409.69
2023-04-22T12:51:09.254Z,100401.31
2023-04-22T12:53:36.225Z,100413.44
2023-04-22T12:56:03.254Z,100412.31
2023-04-22T12:58:30.281Z,100414.38
2023-04-22T13:00:57.214Z,100422.03
2023-04-22T13:03:24.406Z,100422.25
2023-04-22T13:05:52.394Z,100424.34
2023-04-22T13:08:19.515Z,100434.28
2023-04-22T13:10:46.448Z,100433.72
2023-04-22T13:13:18.248Z,100430.72
2023-04-22T13:15:47.841Z,100438.16
2023-04-22T13:18:16.848Z,100435.00
2023-04-22T13:20:44.163Z,100431.16
2023-04-22T13:23:11.390Z,100437.56
2023-04-22T13:25:38.352Z,100427.28
2023-04-22T13:28:05.837Z,100431.84
2023-04-22T13:30:33.467Z,100432.44
2023-04-22T13:33:00.501Z,100438.34
2023-04-22T13:35:27.607Z,100448.53
2023-04-22T13:37:54.564Z,100455.31
2023-04-22T13:40:21.615Z,100444.69
2023-04-22T13:42:48.711Z,100434.78
2023-04-22T13:45:19.101Z,100440.44
2023-04-22T13:47:46.187Z,100447.03
2023-04-22T13:50:13.145Z,100449.56
2023-04-22T13:52:40.106Z,100440.75
2023-04-22T13:55:07.943Z,100450.84
2023-04-22T13:57:34.923Z,100450.63
2023-04-22T14:00:01.913Z,100438.13
2023-04-22T14:02:28.921Z,100442.63
2023-04-22T14:04:55.912Z,100445.53
2023-04-22T14:07:22.842Z,100448.91
2023-04-22T14:09:49.793Z,100452.16
2023-04-22T14:12:17.159Z,100447.06
2023-04-22T14:14:44.144Z,100441.59
2023-04-22T14:17:11.439Z,100439.38
2023-04-22T14:19:39.758Z,100441.78
2023-04-22T14:22:06.944Z,100432.09
2023-04-22T14:24:34.042Z,100428.78
2023-04-22T14:27:04.044Z,100429.72
2023-04-22T14:29:31.901Z,100438.63
2023-04-22T14:31:59.493Z,100426.88
2023-04-22T14:34:27.326Z,100422.31
2023-04-22T14:36:57.203Z,100426.03
2023-04-22T14:39:24.165Z,100434.75
2023-04-22T14:41:51.608Z,100434.91
2023-04-22T14:44:18.675Z,100450.44
2023-04-22T14:46:45.730Z,100439.41
2023-04-22T14:49:12.672Z,100439.34
2023-04-22T14:51:39.863Z,100450.69
2023-04-22T14:54:07.005Z,100442.06
2023-04-22T14:56:33.970Z,100462.28
2023-04-22T14:59:01.107Z,100459.69
2023-04-22T15:01:28.078Z,100450.72
2023-04-22T15:03:55.154Z,100450.13
2023-04-22T15:06:23.137Z,100466.66
2023-04-22T15:08:51.776Z,100469.69
2023-04-22T15:11:18.976Z,100476.88
2023-04-22T15:13:46.112Z,100483.13
2023-04-22T15:16:13.620Z,100479.22
2023-04-22T15:18:40.672Z,100484.09
2023-04-22T15:21:10.226Z,100485.72
2023-04-22T15:23:37.268Z,100483.03
2023-04-22T15:26:04.334Z,100484.19
2023-04-22T15:28:31.415Z,100488.38
2023-04-22T15:31:01.366Z,100502.97
2023-04-22T15:33:28.274Z,100514.59
2023-04-22T15:35:57.434Z,100511.75
2023-04-22T15:38:24.745Z,100503.91
2023-04-22T15:40:51.869Z,100509.56
2023-04-22T15:43:18.759Z,100506.78
2023-04-22T15:45:45.721Z,100510.28
2023-04-22T15:48:12.653Z,100492.94
2023-04-22T15:50:40.803Z,100504.44
2023-04-22T15:53:07.781Z,100511.91
2023-04-22T15:55:34.689Z,100521.69
2023-04-22T15:58:02.853Z,100505.00
2023-04-22T16:00:29.786Z,100498.78
2023-04-22T16:02:56.972Z,100513.88
2023-04-22T16:05:25.069Z,100515.81
2023-04-22T16:07:53.626Z,100511.53
2023-04-22T16:10:21.346Z,100500.72
2023-04-22T16:12:49.017Z,100491.75
2023-04-22T16:15:16.707Z,100495.88
2023-04-22T16:17:44.368Z,100494.22
2023-04-22T16:20:13.680Z,100511.41
2023-04-22T16:22:40.607Z,100516.75
2023-04-22T16:25:08.996Z,100510.25
2023-04-22T16:27:36.069Z,100508.22
2023-04-22T16:30:03.289Z,100501.91
2023-04-22T16:32:30.355Z,100506.25
2023-04-22T16:34:57.331Z,100495.47
2023-04-22T16:37:25.766Z,100508.16
2023-04-22T16:39:53.009Z,100502.66
2023-04-22T16:42:19.932Z,100504.59
2023-04-22T16:44:46.862Z,100481.50
2023-04-22T16:47:13.787Z,100495.22
2023-04-22T16:49:41.085Z,100487.81
2023-04-22T16:52:08.232Z,100496.97
2023-04-22T16:54:35.150Z,100496.00
2023-04-22T16:57:02.843Z,100500.38
2023-04-22T16:59:29.954Z,100496.50
2023-04-22T17:01:57.360Z,100492.81
2023-04-22T17:04:24.530Z,100497.78
2023-04-22T17:06:51.605Z,100499.25
2023-04-22T17:09:18.771Z,100499.63
2023-04-22T17:11:45.725Z,100490.56
2023-04-22T17:14:12.734Z,100492.22
2023-04-22T17:16:39.868Z,100477.06
2023-04-22T17:19:07.716Z,100489.03
2023-04-22T17:21:34.928Z,100487.28
2023-04-22T17:24:03.923Z,100486.59
2023-04-22T17:26:30.931Z,100480.22
2023-04-22T17:28:57.872Z,100490.00
2023-04-22T17:31:25.160Z,100491.16
2023-04-22T17:33:52.168Z,100490.00
2023-04-22T17:36:20.175Z,100487.88
2023-04-22T17:38:49.714Z,100483.81
2023-04-22T17:41:18.498Z,100491.47
2023-04-22T17:43:45.500Z,100493.28
2023-04-22T17:46:12.462Z,100488.75
2023-04-22T17:48:40.121Z,100497.22
2023-04-22T17:51:07.229Z,100503.69
2023-04-22T17:53:34.621Z,100508.75
2023-04-22T17:56:01.659Z,100515.72
2023-04-22T17:58:28.633Z,100528.16
2023-04-22T18:00:56.319Z,100516.41
2023-04-22T18:03:23.446Z,100498.84
2023-04-22T18:05:50.591Z,100501.00
2023-04-22T18:08:17.962Z,100500.59
2023-04-22T18:10:48.476Z,100488.47
2023-04-22T18:13:15.836Z,100488.03
2023-04-22T18:15:43.053Z,100501.84
2023-04-22T18:18:10.163Z,100505.03
2023-04-22T18:20:37.263Z,100507.28
2023-04-22T18:23:04.277Z,100516.41
2023-04-22T18:25:31.329Z,100510.53
2023-04-22T18:27:58.380Z,100514.75
2023-04-22T18:30:25.562Z,100520.28
2023-04-22T18:32:52.856Z,100517.16
2023-04-22T18:35:20.283Z,100516.38
2023-04-22T18:37:47.833Z,100534.00
2023-04-22T18:40:14.835Z,100517.97
2023-04-22T18:42:44.842Z,100531.44
2023-04-22T18:45:12.506Z,100530.88
2023-04-22T18:47:39.615Z,100535.84
2023-04-22T18:50:07.672Z,100543.19
2023-04-22T18:52:34.775Z,100536.88
2023-04-22T18:55:01.850Z,100542.94
2023-04-22T18:57:30.641Z,100537.44
2023-04-22T18:59:57.875Z,100543.50
2023-04-22T19:02:24.857Z,100550.03
2023-04-22T19:04:54.120Z,100551.28
2023-04-22T19:07:21.199Z,100546.63
2023-04-22T19:09:48.153Z,100560.25
2023-04-22T19:12:16.597Z,100547.94
2023-04-22T19:14:43.870Z,100542.81
2023-04-22T19:17:11.114Z,100536.81
2023-04-22T19:19:38.198Z,100534.84
2023-04-22T19:22:05.497Z,100543.16
2023-04-22T19:24:35.068Z,100545.97
2023-04-22T19:27:02.882Z,100538.56
2023-04-22T19:29:30.133Z,100546.31
2023-04-22T19:31:57.368Z,100542.91
2023-04-22T19:34:24.456Z,100541.06
2023-04-22T19:36:51.434Z,100539.59
2023-04-22T19:39:18.352Z,100522.25
2023-04-22T19:41:45.287Z,100517.41
2023-04-22T19:44:12.522Z,100516.63
2023-04-22T19:46:39.555Z,100528.56
2023-04-22T19:49:07.170Z,100524.94
2023-04-22T19:51:35.091Z,100516.44
2023-04-22T19:54:03.067Z,100524.75
2023-04-22T19:56:30.196Z,100534.03
2023-04-22T19:58:57.603Z,100531.47
2023-04-22T20:01:24.990Z,100537.97
2023-04-22T20:03:52.996Z,100540.25
2023-04-22T20:06:22.866Z,100527.47
2023-04-22T20:08:53.612Z,100522.09
2023-04-22T20:11:26.379Z,100522.19
2023-04-22T20:13:53.965Z,100520.72
2023-04-22T20:16:21.876Z,100513.50
2023-04-22T20:18:50.624Z,100503.72
2023-04-22T20:21:19.440Z,100504.63
2023-04-22T20:23:47.959Z,100501.34
2023-04-22T20:26:19.990Z,100497.78
2023-04-22T20:28:49.843Z,100500.13
2023-04-22T20:31:22.452Z,100506.19
2023-04-22T20:33:52.568Z,100505.25
2023-04-22T20:36:24.086Z,100505.22
2023-04-22T20:38:54.873Z,100501.75
2023-04-22T20:41:24.623Z,100498.38
2023-04-22T20:43:52.479Z,100494.69
2023-04-22T20:46:22.715Z,100491.13
2023-04-22T20:48:49.949Z,100487.94
2023-04-22T20:51:17.025Z,100494.56
2023-04-22T20:53:45.312Z,100486.59
2023-04-22T20:56:12.455Z,100484.84
2023-04-22T20:58:39.376Z,100484.38
2023-04-22T21:01:09.019Z,100488.94
2023-04-22T21:03:39.383Z,100489.75
2023-04-22T21:06:08.748Z,100494.09
2023-04-22T21:08:36.837Z,100492.84
2023-04-22T21:11:04.120Z,100487.28
2023-04-22T21:13:31.356Z,100495.53
2023-04-22T21:16:02.914Z,100491.28
2023-04-22T21:18:33.163Z,100482.75
2023-04-22T21:21:03.565Z,100490.44
2023-04-22T21:23:31.406Z,100484.16
2023-04-22T21:26:01.820Z,100475.69
2023-04-22T21:28:31.651Z,100478.53
2023-04-22T21:30:59.058Z,100476.59
2023-04-22T21:33:26.193Z,100477.16
2023-04-22T21:35:53.289Z,100471.97
2023-04-22T21:38:20.270Z,100474.69
2023-04-22T21:40:47.798Z,100476.88
2023-04-22T21:43:14.753Z,100467.88
2023-04-22T21:45:42.216Z,100466.75
2023-04-22T21:48:09.169Z,100472.09
2023-04-22T21:50:36.578Z,100463.97
2023-04-22T21:53:03.679Z,100464.16
2023-04-22T21:55:30.655Z,100460.59
2023-04-22T21:57:58.167Z,100468.63
2023-04-22T22:00:25.269Z,100458.47
2023-04-22T22:02:53.319Z,100452.00
2023-04-22T22:05:20.780Z,100457.06
2023-04-22T22:07:48.893Z,100452.25
2023-04-22T22:10:22.483Z,100458.69
2023-04-22T22:12:50.113Z,100475.00
2023-04-22T22:15:21.074Z,100469.47
2023-04-22T22:17:48.096Z,100467.91
2023-04-22T22:20:18.187Z,100470.16
2023-04-22T22:22:45.659Z,100459.81
2023-04-22T22:25:15.617Z,100459.28
2023-04-22T22:27:49.657Z,100442.28
2023-04-22T22:30:21.601Z,100447.53
2023-04-22T22:32:49.608Z,100440.09
2023-04-22T22:35:16.665Z,100439.53
2023-04-22T22:37:44.667Z,100438.78
2023-04-22T22:40:12.328Z,100440.81
2023-04-22T22:42:39.242Z,100429.25
2023-04-22T22:45:06.941Z,100432.16
2023-04-22T22:47:35.343Z,100432.13
2023-04-22T22:50:02.492Z,100422.78
2023-04-22T22:52:29.520Z,100428.75
2023-04-22T22:54:56.425Z,100415.53
2023-04-22T22:57:23.514Z,100428.38
2023-04-22T22:59:51.759Z,100428.72
2023-04-22T23:02:18.850Z,100420.91
2023-04-22T23:04:46.112Z,100423.06
2023-04-22T23:07:14.682Z,100425.94
2023-04-22T23:09:41.728Z,100425.31
2023-04-22T23:12:08.627Z,100421.81
2023-04-22T23:14:36.601Z,100422.72
2023-04-22T23:17:03.714Z,100427.19
2023-04-22T23:19:31.886Z,100427.38
2023-04-22T23:21:59.164Z,100431.44
2023-04-22T23:24:26.636Z,100428.09
2023-04-22T23:26:53.866Z,100434.13
2023-04-22T23:29:21.409Z,100426.63
2023-04-22T23:31:51.655Z,100426.88
2023-04-22T23:34:23.043Z,100429.56
2023-04-22T23:36:50.692Z,100425.81
2023-04-22T23:39:17.783Z,100426.31
2023-04-22T23:41:44.997Z,100419.44
2023-04-22T23:44:11.970Z,100419.78
2023-04-22T23:46:39.347Z,100402.31
2023-04-22T23:49:07.184Z,100405.81
2023-04-22T23:51:35.113Z,100403.25
2023-04-22T23:54:02.034Z,100409.84
2023-04-22T23:56:29.531Z,100410.31
2023-04-22T23:58:57.174Z,100423.38
